createdAt,value
2023-03-01T00:04:50.991Z,100.00
2023-03-01T00:09:55.582Z,100.00
2023-03-01T00:14:58.705Z,100.00
2023-03-01T00:20:02.003Z,100.00
2023-03-01T00:25:07.088Z,100.00
2023-03-01T00:30:11.656Z,100.00
2023-03-01T00:35:15.134Z,100.00
2023-03-01T00:40:19.848Z,100.00
2023-03-01T00:45:23.520Z,100.00
2023-03-01T00:50:26.940Z,100.00
2023-03-01T00:55:31.714Z,100.00
2023-03-01T01:00:35.453Z,100.00
2023-03-01T01:05:38.778Z,100.00
2023-03-01T01:10:46.078Z,100.00
2023-03-01T01:15:49.581Z,100.00
2023-03-01T01:20:52.908Z,100.00
2023-03-01T01:25:57.550Z,100.00
2023-03-01T01:31:01.100Z,100.00
2023-03-01T01:36:04.801Z,100.00
2023-03-01T01:41:09.700Z,100.00
2023-03-01T01:46:23.769Z,100.00
2023-03-01T01:51:39.071Z,100.00
2023-03-01T01:56:50.394Z,100.00
2023-03-01T02:01:54.288Z,100.00
2023-03-01T02:07:03.611Z,100.00
2023-03-01T02:12:09.026Z,100.00
2023-03-01T02:17:14.019Z,100.00
2023-03-01T02:22:24.717Z,100.00
2023-03-01T02:27:35.733Z,100.00
2023-03-01T02:32:42.689Z,100.00
2023-03-01T02:37:46.575Z,100.00
2023-03-01T02:42:54.767Z,100.00
2023-03-01T02:48:00.099Z,100.00
2023-03-01T02:53:10.230Z,100.00
2023-03-01T02:58:13.708Z,100.00
2023-03-01T03:03:21.267Z,100.00
2023-03-01T03:08:25.299Z,100.00
2023-03-01T03:13:29.545Z,100.00
2023-03-01T03:18:34.272Z,100.00
2023-03-01T03:23:37.465Z,100.00
2023-03-01T03:28:41.137Z,100.00
2023-03-01T03:33:45.846Z,100.00
2023-03-01T03:38:49.856Z,100.00
2023-03-01T03:43:53.260Z,100.00
2023-03-01T03:48:57.934Z,100.00
2023-03-01T03:54:01.260Z,100.00
2023-03-01T03:59:04.696Z,100.00
2023-03-01T04:04:09.330Z,100.00
2023-03-01T04:09:13.091Z,100.00
2023-03-01T04:14:16.190Z,100.00
2023-03-01T04:19:20.761Z,100.00
2023-03-01T04:24:24.063Z,100.00
2023-03-01T04:29:27.295Z,100.00
2023-03-01T04:34:31.942Z,100.00
2023-03-01T04:39:35.318Z,100.00
2023-03-01T04:44:38.513Z,100.00
2023-03-01T04:49:43.239Z,100.00
2023-03-01T04:54:47.029Z,100.00
2023-03-01T04:59:50.403Z,100.00
2023-03-01T05:04:58.633Z,100.00
2023-03-01T05:10:02.333Z,100.00
2023-03-01T05:15:08.062Z,100.00
2023-03-01T05:20:13.721Z,100.00
2023-03-01T05:25:17.752Z,100.00
2023-03-01T05:30:22.825Z,100.00
2023-03-01T05:35:28.005Z,100.00
2023-03-01T05:40:31.268Z,100.00
2023-03-01T05:45:34.613Z,100.00
2023-03-01T05:50:41.214Z,100.00
2023-03-01T05:55:47.198Z,100.00
2023-03-01T06:00:52.851Z,100.00
2023-03-01T06:05:59.707Z,100.00
2023-03-01T06:11:03.143Z,100.00
2023-03-01T06:16:08.023Z,100.00
2023-03-01T06:21:12.972Z,100.00
2023-03-01T06:26:16.114Z,100.00
2023-03-01T06:31:19.455Z,100.00
2023-03-01T06:36:24.075Z,100.00
2023-03-01T06:41:28.999Z,100.00
2023-03-01T06:46:32.948Z,100.00
2023-03-01T06:51:38.771Z,100.00
2023-03-01T06:56:42.290Z,100.00
2023-03-01T07:01:45.523Z,100.00
2023-03-01T07:06:56.171Z,100.00
2023-03-01T07:11:59.791Z,100.00
2023-03-01T07:17:03.272Z,100.00
2023-03-01T07:22:08.977Z,100.00
2023-03-01T07:27:12.406Z,100.00
2023-03-01T07:32:15.605Z,100.00
2023-03-01T07:37:20.144Z,100.00
2023-03-01T07:42:23.359Z,100.00
2023-03-01T07:47:26.698Z,100.00
2023-03-01T07:52:31.744Z,100.00
2023-03-01T07:57:34.917Z,100.00
2023-03-01T08:02:38.192Z,100.00
2023-03-01T08:07:42.961Z,100.00
2023-03-01T08:12:46.065Z,100.00
2023-03-01T08:17:52.164Z,100.00
2023-03-01T08:22:56.737Z,99.06
2023-03-01T08:28:00.011Z,95.62
2023-03-01T08:33:03.454Z,98.51
2023-03-01T08:38:08.070Z,98.71
2023-03-01T08:43:11.514Z,97.96
2023-03-01T08:48:14.618Z,97.58
2023-03-01T08:53:19.138Z,95.31
2023-03-01T08:58:22.413Z,91.27
2023-03-01T09:03:26.250Z,92.46
2023-03-01T09:08:31.415Z,85.49
2023-03-01T09:13:34.758Z,88.03
2023-03-01T09:18:38.188Z,88.50
2023-03-01T09:23:44.346Z,84.81
2023-03-01T09:28:47.782Z,90.98
2023-03-01T09:33:53.028Z,82.97
2023-03-01T09:38:57.478Z,83.51
2023-03-01T09:44:05.886Z,87.61
2023-03-01T09:49:19.274Z,86.09
2023-03-01T09:54:24.852Z,86.35
2023-03-01T09:59:34.106Z,87.25
2023-03-01T10:04:47.015Z,86.83
2023-03-01T10:09:52.038Z,84.63
2023-03-01T10:15:03.552Z,79.75
2023-03-01T10:20:19.146Z,78.09
2023-03-01T10:25:47.103Z,83.47
2023-03-01T10:30:52.612Z,82.06
2023-03-01T10:35:56.033Z,77.86
2023-03-01T10:41:06.515Z,78.15
2023-03-01T10:46:25.084Z,83.38
2023-03-01T10:51:28.509Z,81.18
2023-03-01T10:56:49.655Z,81.28
2023-03-01T11:02:24.918Z,80.60
2023-03-01T11:07:29.074Z,78.57
2023-03-01T11:12:34.494Z,77.82
2023-03-01T11:17:53.620Z,74.36
2023-03-01T11:23:02.366Z,74.87
2023-03-01T11:28:09.615Z,75.47
2023-03-01T11:33:20.751Z,71.39
2023-03-01T11:38:26.918Z,71.20
2023-03-01T11:43:38.198Z,69.41
2023-03-01T11:48:54.053Z,71.51
2023-03-01T11:54:08.476Z,70.99
2023-03-01T11:59:42.139Z,71.92
2023-03-01T12:05:05.120Z,72.20
2023-03-01T12:10:28.179Z,74.25
2023-03-01T12:15:45.283Z,71.36
2023-03-01T12:20:55.863Z,69.96
2023-03-01T12:26:04.889Z,69.54
2023-03-01T12:31:36.268Z,75.26
2023-03-01T12:36:53.286Z,75.35
2023-03-01T12:42:06.684Z,74.41
2023-03-01T12:47:25.469Z,74.46
2023-03-01T12:52:41.046Z,72.12
2023-03-01T12:57:52.404Z,75.79
2023-03-01T13:03:06.873Z,76.87
2023-03-01T13:08:19.032Z,73.72
2023-03-01T13:13:24.158Z,75.23
2023-03-01T13:18:34.242Z,76.24
2023-03-01T13:23:39.796Z,78.23
2023-03-01T13:28:56.862Z,77.32
2023-03-01T13:34:02.019Z,75.40
2023-03-01T13:39:06.609Z,76.30
2023-03-01T13:44:15.024Z,75.83
2023-03-01T13:49:23.708Z,75.86
2023-03-01T13:54:32.804Z,75.04
2023-03-01T13:59:49.062Z,74.85
2023-03-01T14:05:00.668Z,73.13
2023-03-01T14:10:06.434Z,73.67
2023-03-01T14:15:20.262Z,74.53
2023-03-01T14:20:28.333Z,73.78
2023-03-01T14:25:34.031Z,71.72
2023-03-01T14:30:41.115Z,68.84
2023-03-01T14:35:55.496Z,70.21
2023-03-01T14:41:05.068Z,70.14
2023-03-01T14:46:21.676Z,65.92
2023-03-01T14:51:26.920Z,66.78
2023-03-01T14:56:46.284Z,66.56
2023-03-01T15:01:50.277Z,64.90
2023-03-01T15:06:56.182Z,67.54
2023-03-01T15:11:59.364Z,67.78
2023-03-01T15:17:02.864Z,69.22
2023-03-01T15:22:13.777Z,69.10
2023-03-01T15:27:19.669Z,69.28
2023-03-01T15:32:29.177Z,70.51
2023-03-01T15:37:45.834Z,70.91
2023-03-01T15:42:49.000Z,71.53
2023-03-01T15:47:54.214Z,74.62
2023-03-01T15:53:00.825Z,74.46
2023-03-01T15:58:08.253Z,73.14
2023-03-01T16:03:13.228Z,75.57
2023-03-01T16:08:18.488Z,76.56
2023-03-01T16:13:21.600Z,75.26
2023-03-01T16:18:24.853Z,76.47
2023-03-01T16:23:29.538Z,75.88
2023-03-01T16:28:33.001Z,76.46
2023-03-01T16:33:36.251Z,75.08
2023-03-01T16:38:40.883Z,77.86
2023-03-01T16:43:44.180Z,80.29
2023-03-01T16:48:48.738Z,80.36
2023-03-01T16:53:53.962Z,84.52
2023-03-01T16:58:57.715Z,84.47
2023-03-01T17:04:02.037Z,86.93
2023-03-01T17:09:07.158Z,89.80
2023-03-01T17:14:10.890Z,91.88
2023-03-01T17:19:18.778Z,94.23
2023-03-01T17:24:23.549Z,96.05
2023-03-01T17:29:26.822Z,98.24
2023-03-01T17:34:30.117Z,99.69
2023-03-01T17:39:36.445Z,100.00
2023-03-01T17:44:41.373Z,100.00
2023-03-01T17:49:45.617Z,100.00
2023-03-01T17:54:50.469Z,100.00
2023-03-01T17:59:53.799Z,100.00
2023-03-01T18:04:59.208Z,100.00
2023-03-01T18:10:04.788Z,100.00
2023-03-01T18:15:09.460Z,100.00
2023-03-01T18:20:15.503Z,100.00
2023-03-01T18:25:20.355Z,100.00
2023-03-01T18:30:23.961Z,100.00
2023-03-01T18:35:27.324Z,100.00
2023-03-01T18:40:32.847Z,100.00
2023-03-01T18:45:36.509Z,100.00
2023-03-01T18:50:40.151Z,100.00
2023-03-01T18:55:44.836Z,100.00
2023-03-01T19:00:48.212Z,100.00
2023-03-01T19:05:51.693Z,100.00
2023-03-01T19:11:01.638Z,100.00
2023-03-01T19:16:06.180Z,100.00
2023-03-01T19:21:12.088Z,100.00
2023-03-01T19:26:19.943Z,100.00
2023-03-01T19:31:28.186Z,100.00
2023-03-01T19:36:34.168Z,100.00
2023-03-01T19:41:39.415Z,100.00
2023-03-01T19:46:43.435Z,100.00
2023-03-01T19:51:47.303Z,100.00
2023-03-01T19:56:52.150Z,100.00
2023-03-01T20:01:56.099Z,100.00
2023-03-01T20:06:59.419Z,100.00
2023-03-01T20:12:04.900Z,100.00
2023-03-01T20:17:08.156Z,100.00
2023-03-01T20:22:14.953Z,100.00
2023-03-01T20:27:19.557Z,100.00
2023-03-01T20:32:23.154Z,100.00
2023-03-01T20:37:26.900Z,100.00
2023-03-01T20:42:32.077Z,100.00
2023-03-01T20:47:35.389Z,100.00
2023-03-01T20:52:47.048Z,100.00
2023-03-01T20:57:52.453Z,100.00
2023-03-01T21:02:55.682Z,100.00
2023-03-01T21:08:02.483Z,100.00
2023-03-01T21:13:07.333Z,100.00
2023-03-01T21:18:10.661Z,100.00
2023-03-01T21:23:13.855Z,100.00
2023-03-01T21:28:18.560Z,100.00
2023-03-01T21:33:22.046Z,100.00
2023-03-01T21:38:25.417Z,100.00
2023-03-01T21:43:30.134Z,100.00
2023-03-01T21:48:34.066Z,100.00
2023-03-01T21:53:38.134Z,100.00
2023-03-01T21:58:42.919Z,100.00
2023-03-01T22:03:46.789Z,100.00
2023-03-01T22:08:52.096Z,100.00
2023-03-01T22:13:57.748Z,100.00
2023-03-01T22:19:01.448Z,100.00
2023-03-01T22:24:05.275Z,100.00
2023-03-01T22:29:13.183Z,100.00
2023-03-01T22:34:17.263Z,100.00
2023-03-01T22:39:21.990Z,100.00
2023-03-01T22:44:26.498Z,100.00
2023-03-01T22:49:31.069Z,100.00
2023-03-01T22:54:34.359Z,100.00
2023-03-01T22:59:38.993Z,100.00
2023-03-01T23:04:43.929Z,100.00
2023-03-01T23:09:47.824Z,100.00
2023-03-01T23:14:53.900Z,100.00
2023-03-01T23:19:57.112Z,100.00
2023-03-01T23:25:00.345Z,100.00
2023-03-01T23:30:05.425Z,100.00
2023-03-01T23:35:10.666Z,100.00
2023-03-01T23:40:14.797Z,100.00
2023-03-01T23:45:19.912Z,100.00
2023-03-01T23:50:24.332Z,100.00
2023-03-01T23:55:29.691Z,100.00
